Time;durP1;ratioP1;P1;durP2;ratioP2;P2;SDS_P1;SDS_P2;PMS_P1;PMS_P2;Temp;Humidity;BMP_temperature;BMP_pressure;BME280_temperature;BME280_humidity;BME280_pressure;Samples;Min_cycle;Max_cycle;Signal;HPM_P1;HPM_P2
2022/10/08 00:01:12;;;;;;;0.00;0.00;;;13.10;99.90;;;;;;5038694;28;20972;-69
2022/10/08 00:03:43;;;;;;;0.00;0.00;;;13.00;99.90;;;;;;5033351;28;20441;-71
2022/10/08 00:06:14;;;;;;;0.00;0.00;;;13.00;99.90;;;;;;5032863;28;20559;-69
2022/10/08 00:08:45;;;;;;;0.00;0.00;;;13.00;99.90;;;;;;5033108;28;20449;-67
2022/10/08 00:11:16;;;;;;;0.00;0.00;;;13.00;99.90;;;;;;5047738;28;20528;-70
2022/10/08 00:13:46;;;;;;;0.00;0.00;;;13.10;99.90;;;;;;5048362;28;20445;-69
2022/10/08 00:16:16;;;;;;;0.00;0.00;;;13.00;99.90;;;;;;5033070;28;20531;-70
2022/10/08 00:18:46;;;;;;;0.00;0.00;;;13.10;99.90;;;;;;5033017;28;20568;-69
2022/10/08 00:21:16;;;;;;;0.00;0.00;;;13.10;99.90;;;;;;5032920;28;20515;-69
2022/10/08 00:23:45;;;;;;;0.00;0.00;;;13.20;99.90;;;;;;5037729;28;20440;-69
2022/10/08 00:26:16;;;;;;;0.00;0.00;;;13.20;99.90;;;;;;5053135;28;20482;-69
2022/10/08 00:28:46;;;;;;;0.00;0.00;;;13.20;99.90;;;;;;5052751;28;20475;-69
2022/10/08 00:31:16;;;;;;;0.00;0.00;;;13.20;99.90;;;;;;5046797;28;20481;-69
2022/10/08 00:33:44;;;;;;;0.00;0.00;;;13.20;99.90;;;;;;5042317;28;20453;-69
2022/10/08 00:36:13;;;;;;;0.00;0.00;;;13.10;99.90;;;;;;5052832;28;20472;-69
2022/10/08 00:38:41;;;;;;;0.00;0.00;;;13.00;99.90;;;;;;5039149;28;20433;-67
2022/10/08 00:41:19;;;;;;;0.00;0.00;;;13.00;99.90;;;;;;5032512;28;20483;-68
2022/10/08 00:43:49;;;;;;;0.00;0.00;;;13.10;99.90;;;;;;5042827;28;20954;-69
2022/10/08 00:46:29;;;;;;;0.00;0.00;;;13.10;99.90;;;;;;5032911;28;20865;-69
2022/10/08 00:49:01;;;;;;;0.00;0.00;;;13.20;99.90;;;;;;5032835;28;20507;-69
2022/10/08 00:51:31;;;;;;;0.00;0.00;;;13.30;99.90;;;;;;5043777;28;20468;-68
2022/10/08 00:54:01;;;;;;;0.00;0.00;;;13.30;99.90;;;;;;5052253;28;20460;-68
2022/10/08 00:56:32;;;;;;;0.00;0.00;;;13.30;99.90;;;;;;5052773;28;20471;-69
2022/10/08 00:59:01;;;;;;;0.00;0.00;;;13.30;99.90;;;;;;5037268;28;21065;-69
2022/10/08 01:01:28;;;;;;;0.00;0.00;;;13.30;99.90;;;;;;5043891;28;20906;-68
2022/10/08 01:03:56;;;;;;;0.00;0.00;;;13.20;99.90;;;;;;5034244;28;20461;-69
2022/10/08 01:06:28;;;;;;;0.00;0.00;;;13.10;99.90;;;;;;5036993;28;20453;-69
2022/10/08 01:09:02;;;;;;;0.00;0.00;;;13.00;99.90;;;;;;5038990;28;20849;-71
2022/10/08 01:11:45;;;;;;;0.00;0.00;;;12.90;99.90;;;;;;5041741;28;20525;-79
2022/10/08 01:14:23;;;;;;;0.00;0.00;;;12.90;99.90;;;;;;5044607;28;20962;-71
2022/10/08 01:16:59;;;;;;;0.00;0.00;;;12.80;99.90;;;;;;5042781;28;20472;-69
2022/10/08 01:19:53;;;;;;;0.00;0.00;;;12.80;99.90;;;;;;5038645;28;20455;-70
2022/10/08 01:22:35;;;;;;;0.00;0.00;;;12.70;99.90;;;;;;5032672;28;20454;-70
2022/10/08 01:25:32;;;;;;;0.00;0.00;;;12.70;99.90;;;;;;5032591;28;20928;-69
2022/10/08 01:28:11;;;;;;;0.00;0.00;;;12.60;99.90;;;;;;5032350;28;20437;-71
2022/10/08 01:30:45;;;;;;;0.00;0.00;;;12.70;99.90;;;;;;5032488;28;20472;-71
2022/10/08 01:33:21;;;;;;;0.00;0.00;;;12.60;99.90;;;;;;5032354;28;20456;-71
2022/10/08 01:35:55;;;;;;;0.00;0.00;;;12.60;99.90;;;;;;5033932;28;20532;-71
2022/10/08 01:38:25;;;;;;;0.00;0.00;;;12.60;99.90;;;;;;5055680;28;20867;-70
2022/10/08 01:40:57;;;;;;;0.00;0.00;;;12.60;99.90;;;;;;5055670;28;20456;-69
2022/10/08 01:43:30;;;;;;;0.00;0.00;;;12.50;99.90;;;;;;5041435;28;20544;-68
2022/10/08 01:46:06;;;;;;;0.00;0.00;;;12.60;99.90;;;;;;5036182;28;20503;-70
2022/10/08 01:48:39;;;;;;;0.00;0.00;;;12.60;99.90;;;;;;5036754;28;20453;-69
2022/10/08 01:51:13;;;;;;;0.00;0.00;;;12.50;99.90;;;;;;5048986;28;20461;-69
2022/10/08 01:53:44;;;;;;;0.00;0.00;;;12.50;99.90;;;;;;5046397;28;20448;-68
2022/10/08 01:56:17;;;;;;;0.00;0.00;;;12.40;99.90;;;;;;5036276;28;20484;-69
2022/10/08 01:58:52;;;;;;;0.00;0.00;;;12.40;99.90;;;;;;5036221;28;20457;-69
2022/10/08 02:01:26;;;;;;;0.00;0.00;;;12.40;99.90;;;;;;5050652;28;20483;-69
2022/10/08 02:06:44;;;;;;;0.00;0.00;;;12.50;99.90;;;;;;5035500;28;20448;-70
2022/10/08 02:09:12;;;;;;;0.00;0.00;;;12.40;99.90;;;;;;5035390;28;20449;-69
2022/10/08 02:11:40;;;;;;;0.00;0.00;;;12.30;99.90;;;;;;5041875;28;20488;-70
2022/10/08 02:14:10;;;;;;;0.00;0.00;;;12.30;99.90;;;;;;5045321;28;20851;-70
2022/10/08 02:19:29;;;;;;;0.00;0.00;;;12.30;99.90;;;;;;5333217;22;20473;-86
2022/10/08 02:22:01;;;;;;;0.00;0.00;;;12.40;99.90;;;;;;5078567;28;20494;-86
2022/10/08 02:24:34;;;;;;;0.00;0.00;;;12.60;99.90;;;;;;5059960;28;20433;-84
2022/10/08 02:27:06;;;;;;;0.00;0.00;;;12.70;99.90;;;;;;5059003;28;20441;-86
2022/10/08 02:29:39;;;;;;;0.00;0.00;;;12.80;99.90;;;;;;5057318;28;20437;-85
2022/10/08 02:32:13;;;;;;;0.00;0.00;;;12.80;99.90;;;;;;5063408;28;20445;-86
2022/10/08 02:34:47;;;;;;;0.00;0.00;;;12.80;99.90;;;;;;5068955;28;20455;-85
2022/10/08 02:37:20;;;;;;;0.00;0.00;;;12.80;99.90;;;;;;5077774;28;20476;-84
2022/10/08 02:39:53;;;;;;;0.00;0.00;;;12.80;99.90;;;;;;5076474;28;21005;-86
2022/10/08 02:42:24;;;;;;;0.00;0.00;;;12.90;99.90;;;;;;5073571;28;20464;-86
2022/10/08 02:44:58;;;;;;;0.00;0.00;;;12.80;99.90;;;;;;5065093;28;20804;-86
2022/10/08 02:47:30;;;;;;;0.00;0.00;;;12.70;99.90;;;;;;5061876;28;20444;-86
2022/10/08 02:50:01;;;;;;;0.00;0.00;;;12.70;99.90;;;;;;5060241;28;20467;-86
2022/10/08 02:52:34;;;;;;;0.00;0.00;;;12.80;99.90;;;;;;5061334;28;20444;-86
2022/10/08 02:55:03;;;;;;;0.00;0.00;;;12.80;99.90;;;;;;5045238;28;20472;-86
2022/10/08 02:57:36;;;;;;;0.00;0.00;;;12.70;99.90;;;;;;5055843;28;20480;-86
2022/10/08 03:00:07;;;;;;;0.00;0.00;;;12.80;99.90;;;;;;5058834;28;20472;-86
2022/10/08 03:02:39;;;;;;;0.00;0.00;;;12.80;99.90;;;;;;5041949;28;20487;-86
2022/10/08 03:05:12;;;;;;;0.00;0.00;;;12.80;99.90;;;;;;5056407;28;20872;-86
2022/10/08 03:07:41;;;;;;;0.00;0.00;;;12.80;99.90;;;;;;5041294;28;20437;-85
2022/10/08 03:10:11;;;;;;;0.00;0.00;;;12.80;99.90;;;;;;5051358;28;20527;-86
2022/10/08 03:12:39;;;;;;;0.00;0.00;;;12.90;99.90;;;;;;5055710;28;20452;-85
2022/10/08 03:15:10;;;;;;;0.00;0.00;;;12.90;99.90;;;;;;5059954;28;20452;-86
2022/10/08 03:17:42;;;;;;;0.00;0.00;;;13.00;99.90;;;;;;5058532;28;20488;-85
2022/10/08 03:20:11;;;;;;;0.00;0.00;;;13.10;99.90;;;;;;5048755;28;20978;-86
2022/10/08 03:22:39;;;;;;;0.00;0.00;;;13.10;99.90;;;;;;5042730;28;20445;-87
2022/10/08 03:25:08;;;;;;;0.00;0.00;;;13.20;99.90;;;;;;5044366;28;20458;-87
2022/10/08 03:27:35;;;;;;;0.00;0.00;;;13.20;99.90;;;;;;5042677;28;20479;-87
2022/10/08 03:30:04;;;;;;;0.00;0.00;;;13.20;99.90;;;;;;5042353;28;20476;-87
2022/10/08 03:32:33;;;;;;;0.00;0.00;;;13.30;99.90;;;;;;5042382;28;20425;-86
2022/10/08 03:35:01;;;;;;;0.00;0.00;;;13.30;99.90;;;;;;5042882;28;20475;-87
2022/10/08 03:37:28;;;;;;;0.00;0.00;;;13.30;99.90;;;;;;5056911;28;20453;-87
2022/10/08 03:39:56;;;;;;;0.00;0.00;;;13.30;99.90;;;;;;5042297;28;20481;-87
2022/10/08 03:42:24;;;;;;;0.00;0.00;;;13.30;99.90;;;;;;5041278;28;20441;-87
2022/10/08 03:44:53;;;;;;;0.00;0.00;;;13.30;99.90;;;;;;5041270;28;20448;-87
2022/10/08 03:47:21;;;;;;;0.00;0.00;;;13.30;99.90;;;;;;5058462;28;20448;-87
2022/10/08 03:49:52;;;;;;;0.00;0.00;;;13.30;99.90;;;;;;5040888;28;21001;-86
2022/10/08 03:52:19;;;;;;;0.00;0.00;;;13.30;99.90;;;;;;5054234;28;20957;-87
2022/10/08 03:54:47;;;;;;;0.00;0.00;;;13.30;99.90;;;;;;5057620;28;20444;-86
2022/10/08 03:57:15;;;;;;;0.00;0.00;;;13.30;99.90;;;;;;5039809;28;20481;-86
2022/10/08 03:59:43;;;;;;;0.00;0.00;;;13.30;99.90;;;;;;5043398;28;20468;-86
2022/10/08 04:02:10;;;;;;;0.00;0.00;;;13.30;99.90;;;;;;5061370;28;20807;-85
2022/10/08 04:04:38;;;;;;;0.00;0.00;;;13.20;99.90;;;;;;5043853;28;20480;-86
2022/10/08 04:07:07;;;;;;;0.00;0.00;;;13.10;99.90;;;;;;5040632;28;20464;-86
2022/10/08 04:09:35;;;;;;;0.00;0.00;;;13.10;99.90;;;;;;5039697;28;20519;-86
2022/10/08 04:12:03;;;;;;;0.00;0.00;;;13.10;99.90;;;;;;5039405;28;20811;-86
2022/10/08 04:14:31;;;;;;;0.00;0.00;;;13.20;99.90;;;;;;5045333;28;20452;-87
2022/10/08 04:16:59;;;;;;;0.00;0.00;;;13.10;99.90;;;;;;5044618;28;20468;-86
2022/10/08 04:19:27;;;;;;;0.00;0.00;;;13.00;99.90;;;;;;5039358;28;20499;-85
2022/10/08 04:21:54;;;;;;;0.00;0.00;;;13.00;99.90;;;;;;5055086;28;20456;-85
2022/10/08 04:24:24;;;;;;;0.00;0.00;;;13.10;99.90;;;;;;5040015;28;20457;-84
2022/10/08 04:26:52;;;;;;;0.00;0.00;;;13.10;99.90;;;;;;5038676;28;20445;-85
2022/10/08 04:29:19;;;;;;;0.00;0.00;;;13.10;99.90;;;;;;5054396;28;20484;-85
2022/10/08 04:31:47;;;;;;;0.00;0.00;;;13.10;99.90;;;;;;5059368;28;21008;-85
2022/10/08 04:34:15;;;;;;;0.00;0.00;;;13.20;99.90;;;;;;5057705;28;20440;-86
2022/10/08 04:36:42;;;;;;;0.00;0.00;;;13.10;99.90;;;;;;5041886;28;20460;-85
2022/10/08 04:39:10;;;;;;;0.00;0.00;;;13.20;99.90;;;;;;5053366;28;20480;-85
2022/10/08 04:41:39;;;;;;;0.00;0.00;;;13.20;99.90;;;;;;5051159;28;20448;-85
2022/10/08 04:44:07;;;;;;;0.00;0.00;;;13.20;99.90;;;;;;5046428;28;20444;-85
2022/10/08 04:46:35;;;;;;;0.00;0.00;;;13.10;99.90;;;;;;5053863;28;20444;-87
2022/10/08 04:49:03;;;;;;;0.00;0.00;;;13.10;99.90;;;;;;5054630;28;20476;-88
2022/10/08 04:51:31;;;;;;;0.00;0.00;;;13.10;99.90;;;;;;5045775;28;20453;-87
2022/10/08 04:53:59;;;;;;;0.00;0.00;;;13.20;99.90;;;;;;5059249;28;20456;-89
2022/10/08 04:56:28;;;;;;;0.00;0.00;;;13.10;99.90;;;;;;5051624;28;20453;-90
2022/10/08 04:58:59;;;;;;;0.00;0.00;;;13.10;99.90;;;;;;5047130;28;20477;-90
2022/10/08 05:01:28;;;;;;;0.00;0.00;;;13.00;99.90;;;;;;5041093;28;20468;-91
2022/10/08 05:03:58;;;;;;;0.00;0.00;;;13.00;99.90;;;;;;5041992;28;20457;-89
2022/10/08 05:06:27;;;;;;;0.00;0.00;;;13.00;99.90;;;;;;5076530;28;20447;-88
2022/10/08 05:08:57;;;;;;;0.00;0.00;;;13.00;99.90;;;;;;5064053;28;20463;-87
2022/10/08 05:11:26;;;;;;;0.00;0.00;;;13.00;99.90;;;;;;5060083;28;20531;-90
2022/10/08 05:13:55;;;;;;;0.00;0.00;;;13.00;99.90;;;;;;5071389;28;20786;-86
2022/10/08 05:16:26;;;;;;;0.00;0.00;;;13.00;99.90;;;;;;5055054;28;20480;-86
2022/10/08 05:18:57;;;;;;;0.00;0.00;;;13.00;99.90;;;;;;5042032;28;20469;-88
2022/10/08 05:21:27;;;;;;;0.00;0.00;;;12.90;99.90;;;;;;5062735;28;20452;-90
2022/10/08 05:23:55;;;;;;;0.00;0.00;;;12.80;99.90;;;;;;5063449;28;20448;-89
2022/10/08 05:26:25;;;;;;;0.00;0.00;;;12.80;99.90;;;;;;5066782;28;21016;-91
2022/10/08 05:29:13;;;;;;;0.00;0.00;;;12.90;99.90;;;;;;5062743;28;20446;-89
2022/10/08 05:31:43;;;;;;;0.00;0.00;;;12.90;99.90;;;;;;5077856;28;20443;-88
2022/10/08 05:34:12;;;;;;;0.00;0.00;;;12.90;99.90;;;;;;5085189;28;20440;-88
2022/10/08 05:36:41;;;;;;;0.00;0.00;;;13.00;99.90;;;;;;5084958;28;20482;-88
2022/10/08 05:39:10;;;;;;;0.00;0.00;;;13.00;99.90;;;;;;5081227;28;20475;-86
2022/10/08 05:41:38;;;;;;;0.00;0.00;;;13.00;99.90;;;;;;5070219;28;20477;-87
2022/10/08 05:44:07;;;;;;;0.00;0.00;;;13.00;99.90;;;;;;5066403;28;20809;-87
2022/10/08 05:46:36;;;;;;;0.00;0.00;;;13.00;99.90;;;;;;5061219;28;20444;-87
2022/10/08 05:49:07;;;;;;;0.00;0.00;;;12.90;99.90;;;;;;5060412;28;20448;-87
2022/10/08 05:51:37;;;;;;;0.00;0.00;;;12.80;99.90;;;;;;5059696;28;20475;-87
2022/10/08 05:54:05;;;;;;;0.00;0.00;;;12.80;99.90;;;;;;5062257;28;20432;-88
2022/10/08 05:56:33;;;;;;;0.00;0.00;;;12.70;99.90;;;;;;5047780;28;20448;-87
2022/10/08 05:59:01;;;;;;;0.00;0.00;;;12.70;99.90;;;;;;5042222;28;20869;-88
2022/10/08 06:01:31;;;;;;;0.00;0.00;;;12.70;99.90;;;;;;5042720;28;20461;-86
2022/10/08 06:04:01;;;;;;;0.00;0.00;;;12.60;99.90;;;;;;5042587;28;20953;-87
2022/10/08 06:06:37;;;;;;;0.00;0.00;;;12.50;99.90;;;;;;5047139;28;20833;-88
2022/10/08 06:09:06;;;;;;;0.00;0.00;;;12.30;99.90;;;;;;5062569;28;20788;-87
2022/10/08 06:11:36;;;;;;;0.00;0.00;;;12.30;99.90;;;;;;5061551;28;20949;-87
2022/10/08 06:14:06;;;;;;;0.00;0.00;;;12.20;99.90;;;;;;5062372;28;20846;-87
2022/10/08 06:16:34;;;;;;;0.00;0.00;;;12.20;99.90;;;;;;5062476;28;20432;-86
2022/10/08 06:19:03;;;;;;;0.00;0.00;;;12.20;99.90;;;;;;5064114;28;20476;-87
2022/10/08 06:21:31;;;;;;;0.00;0.00;;;12.20;99.90;;;;;;5062526;28;20475;-87
2022/10/08 06:24:02;;;;;;;0.00;0.00;;;12.20;99.90;;;;;;5061828;28;20525;-86
2022/10/08 06:26:32;;;;;;;0.00;0.00;;;12.20;99.90;;;;;;5062343;28;20441;-87
2022/10/08 06:29:04;;;;;;;0.00;0.00;;;12.30;99.90;;;;;;5067659;28;20475;-89
2022/10/08 06:31:32;;;;;;;0.00;0.00;;;12.20;99.90;;;;;;5053497;28;20934;-89
2022/10/08 06:34:01;;;;;;;0.00;0.00;;;12.30;99.90;;;;;;5051206;28;20445;-88
2022/10/08 06:36:29;;;;;;;0.00;0.00;;;12.30;99.90;;;;;;5058540;28;20451;-88
2022/10/08 06:38:58;;;;;;;0.00;0.00;;;12.40;99.90;;;;;;5056034;28;20968;-88
2022/10/08 06:41:29;;;;;;;0.00;0.00;;;12.50;99.90;;;;;;5053925;28;20535;-87
2022/10/08 06:43:58;;;;;;;0.00;0.00;;;12.50;99.90;;;;;;5064028;28;20456;-87
2022/10/08 06:46:26;;;;;;;0.00;0.00;;;12.70;99.90;;;;;;5059774;28;20421;-88
2022/10/08 06:48:54;;;;;;;0.00;0.00;;;12.80;99.90;;;;;;5056508;28;20983;-87
2022/10/08 06:51:22;;;;;;;0.00;0.00;;;13.00;99.90;;;;;;5057987;28;20456;-87
2022/10/08 06:53:52;;;;;;;0.00;0.00;;;13.00;99.90;;;;;;5064388;28;20948;-87
2022/10/08 06:56:21;;;;;;;0.00;0.00;;;13.00;99.90;;;;;;5062905;28;20444;-85
2022/10/08 06:58:51;;;;;;;0.00;0.00;;;12.90;99.90;;;;;;5061926;28;20474;-84
2022/10/08 07:01:22;;;;;;;0.00;0.00;;;12.90;99.90;;;;;;5062420;28;20491;-85
2022/10/08 07:03:50;;;;;;;0.00;0.00;;;12.70;99.90;;;;;;5064050;28;20455;-84
2022/10/08 07:06:18;;;;;;;0.00;0.00;;;12.60;99.90;;;;;;5059234;28;20449;-85
2022/10/08 07:08:47;;;;;;;0.00;0.00;;;12.60;99.90;;;;;;5047962;28;20445;-86
2022/10/08 07:11:16;;;;;;;0.00;0.00;;;12.60;99.90;;;;;;5049086;28;20476;-86
2022/10/08 07:13:46;;;;;;;0.00;0.00;;;12.50;99.90;;;;;;5051775;28;20438;-85
2022/10/08 07:16:17;;;;;;;0.00;0.00;;;12.50;99.90;;;;;;5054205;28;20552;-86
2022/10/08 07:18:49;;;;;;;0.00;0.00;;;12.50;99.90;;;;;;5053757;28;20475;-86
2022/10/08 07:21:18;;;;;;;0.00;0.00;;;12.50;99.90;;;;;;5047488;28;20508;-85
2022/10/08 07:23:47;;;;;;;0.00;0.00;;;12.50;99.90;;;;;;5041147;28;20448;-85
2022/10/08 07:26:16;;;;;;;0.00;0.00;;;12.60;99.90;;;;;;5039747;28;20441;-85
2022/10/08 07:28:50;;;;;;;0.00;0.00;;;12.60;99.90;;;;;;5041068;28;20966;-86
2022/10/08 07:31:22;;;;;;;0.00;0.00;;;12.70;99.90;;;;;;5041016;28;20484;-85
2022/10/08 07:34:03;;;;;;;0.00;0.00;;;12.70;99.90;;;;;;5059644;28;20472;-85
2022/10/08 07:36:32;;;;;;;0.00;0.00;;;12.80;99.90;;;;;;5039753;28;20476;-85
2022/10/08 07:39:01;;;;;;;0.00;0.00;;;12.90;99.90;;;;;;5040704;28;20999;-90
2022/10/08 07:41:30;;;;;;;0.00;0.00;;;13.10;99.90;;;;;;5041537;28;20818;-89
2022/10/08 07:44:03;;;;;;;0.00;0.00;;;13.10;99.90;;;;;;5040752;28;20515;-86
2022/10/08 07:46:34;;;;;;;0.00;0.00;;;13.10;99.90;;;;;;5046347;28;20475;-87
2022/10/08 07:49:06;;;;;;;0.00;0.00;;;13.10;99.90;;;;;;5052157;28;20437;-87
2022/10/08 07:51:34;;;;;;;0.00;0.00;;;13.00;99.90;;;;;;5055850;28;20948;-86
2022/10/08 07:54:05;;;;;;;0.00;0.00;;;13.00;99.90;;;;;;5055010;28;20992;-88
2022/10/08 07:56:36;;;;;;;0.00;0.00;;;13.10;99.90;;;;;;5043415;28;20787;-88
2022/10/08 07:59:05;;;;;;;0.00;0.00;;;13.30;99.90;;;;;;5041261;28;20453;-86
2022/10/08 08:01:35;;;;;;;0.00;0.00;;;13.40;99.90;;;;;;5040252;28;20468;-89
2022/10/08 08:04:05;;;;;;;0.00;0.00;;;13.60;99.90;;;;;;5039254;28;20504;-85
2022/10/08 08:06:37;;;;;;;0.00;0.00;;;13.60;99.90;;;;;;5039243;28;20431;-88
2022/10/08 08:09:05;;;;;;;0.00;0.00;;;13.70;99.90;;;;;;5049337;28;20518;-88
2022/10/08 08:11:33;;;;;;;0.00;0.00;;;13.70;99.90;;;;;;5061808;28;20526;-88
2022/10/08 08:14:01;;;;;;;0.00;0.00;;;13.80;99.90;;;;;;5059999;28;20440;-88
2022/10/08 08:16:29;;;;;;;0.00;0.00;;;13.80;99.90;;;;;;5060616;28;20473;-87
2022/10/08 08:19:05;;;;;;;0.00;0.00;;;13.80;99.90;;;;;;5057061;28;20461;-87
2022/10/08 08:21:38;;;;;;;0.00;0.00;;;13.90;99.90;;;;;;5060773;28;20456;-89
2022/10/08 08:24:07;;;;;;;0.00;0.00;;;13.90;99.90;;;;;;5061906;28;20473;-87
2022/10/08 08:26:37;;;;;;;0.00;0.00;;;13.90;99.90;;;;;;5061482;28;20448;-88
2022/10/08 08:29:08;;;;;;;0.00;0.00;;;14.00;99.90;;;;;;5062048;28;20484;-89
2022/10/08 08:31:38;;;;;;;0.00;0.00;;;14.00;99.90;;;;;;5061996;28;20482;-88
2022/10/08 08:34:11;;;;;;;0.00;0.00;;;14.10;99.90;;;;;;5063135;28;20452;-88
2022/10/08 08:36:43;;;;;;;0.00;0.00;;;14.10;99.90;;;;;;5063251;28;20444;-87
2022/10/08 08:39:19;;;;;;;0.00;0.00;;;14.10;99.90;;;;;;5060499;28;20466;-88
2022/10/08 08:42:26;;;;;;;0.00;0.00;;;14.10;99.90;;;;;;5061883;28;20428;-87
2022/10/08 08:44:59;;;;;;;0.00;0.00;;;14.10;99.90;;;;;;5062305;28;20841;-88
2022/10/08 08:47:41;;;;;;;0.00;0.00;;;14.20;99.90;;;;;;5064560;28;20452;-87
2022/10/08 08:50:20;;;;;;;0.00;0.00;;;14.40;99.90;;;;;;5064911;28;20800;-85
2022/10/08 08:52:51;;;;;;;0.00;0.00;;;14.40;99.90;;;;;;5067438;28;20509;-86
2022/10/08 08:55:27;;;;;;;0.00;0.00;;;14.40;99.90;;;;;;5070204;28;20446;-86
2022/10/08 08:58:01;;;;;;;0.00;0.00;;;14.50;99.90;;;;;;5064199;28;20508;-87
2022/10/08 09:00:40;;;;;;;0.00;0.00;;;14.50;99.90;;;;;;5065672;28;20479;-88
2022/10/08 09:03:15;;;;;;;0.00;0.00;;;14.70;99.90;;;;;;5065404;28;20510;-87
2022/10/08 09:05:48;;;;;;;0.00;0.00;;;14.90;99.90;;;;;;5065807;28;20420;-86
2022/10/08 09:08:20;;;;;;;0.00;0.00;;;15.10;99.90;;;;;;5065912;28;20551;-88
2022/10/08 09:10:55;;;;;;;0.00;0.00;;;15.30;99.90;;;;;;5066579;28;20527;-89
2022/10/08 09:13:26;;;;;;;0.00;0.00;;;15.40;99.90;;;;;;5066082;28;20455;-87
2022/10/08 09:15:55;;;;;;;0.00;0.00;;;15.50;99.90;;;;;;5064521;28;20460;-90
2022/10/08 09:18:26;;;;;;;0.00;0.00;;;15.50;99.90;;;;;;5067214;28;20440;-91
2022/10/08 09:20:56;;;;;;;0.00;0.00;;;15.50;99.90;;;;;;5065517;28;20529;-91
2022/10/08 09:23:29;;;;;;;0.00;0.00;;;15.50;99.90;;;;;;5060093;28;20453;-89
2022/10/08 09:26:23;;;;;;;0.00;0.00;;;15.40;99.90;;;;;;5046485;28;20427;-88
2022/10/08 09:28:56;;;;;;;0.00;0.00;;;15.30;99.90;;;;;;5046492;28;20448;-88
2022/10/08 09:31:28;;;;;;;0.00;0.00;;;15.20;99.90;;;;;;5046576;28;20441;-88
2022/10/08 09:34:00;;;;;;;0.00;0.00;;;15.30;99.90;;;;;;5045336;28;20449;-88
2022/10/08 09:36:37;;;;;;;0.00;0.00;;;15.30;99.90;;;;;;5045610;28;20512;-89
2022/10/08 09:39:15;;;;;;;0.00;0.00;;;15.30;99.90;;;;;;5046612;28;20421;-91
2022/10/08 09:41:44;;;;;;;0.00;0.00;;;15.20;99.90;;;;;;5046623;28;20955;-90
2022/10/08 09:44:16;;;;;;;0.00;0.00;;;15.20;99.90;;;;;;5052291;28;20458;-88
2022/10/08 09:46:45;;;;;;;0.00;0.00;;;15.20;99.90;;;;;;5064467;28;20440;-89
2022/10/08 09:49:37;;;;;;;0.00;0.00;;;15.30;99.90;;;;;;5064700;28;20915;-89
2022/10/08 09:52:14;;;;;;;0.00;0.00;;;15.40;99.90;;;;;;5063796;28;20527;-89
2022/10/08 09:54:47;;;;;;;0.00;0.00;;;15.50;99.90;;;;;;5065615;28;20460;-89
2022/10/08 09:57:17;;;;;;;0.00;0.00;;;15.70;99.90;;;;;;5074292;28;20464;-88
2022/10/08 09:59:51;;;;;;;0.00;0.00;;;15.90;99.90;;;;;;5065230;28;20468;-88
2022/10/08 10:02:38;;;;;;;0.00;0.00;;;15.90;99.90;;;;;;5063964;28;20449;-88
2022/10/08 10:05:17;;;;;;;0.00;0.00;;;16.10;99.90;;;;;;5066201;28;20440;-89
2022/10/08 10:07:49;;;;;;;0.00;0.00;;;16.10;99.90;;;;;;5065858;28;20798;-89
2022/10/08 10:10:23;;;;;;;0.00;0.00;;;16.00;99.90;;;;;;5070384;28;20563;-88
2022/10/08 10:12:54;;;;;;;0.00;0.00;;;15.90;99.90;;;;;;5078824;28;20445;-88
2022/10/08 10:15:25;;;;;;;0.00;0.00;;;15.90;99.90;;;;;;5077713;28;20433;-85
2022/10/08 10:17:55;;;;;;;0.00;0.00;;;15.90;99.90;;;;;;5078749;28;20466;-84
2022/10/08 10:20:27;;;;;;;0.00;0.00;;;15.90;99.90;;;;;;5079144;28;20534;-86
2022/10/08 10:22:59;;;;;;;0.00;0.00;;;16.10;99.90;;;;;;5079513;28;20425;-84
2022/10/08 10:25:34;;;;;;;0.00;0.00;;;16.20;99.90;;;;;;5079852;28;20432;-85
2022/10/08 10:28:06;;;;;;;0.00;0.00;;;16.30;99.90;;;;;;5078806;28;20435;-86
2022/10/08 10:30:47;;;;;;;0.00;0.00;;;16.30;99.90;;;;;;5078145;28;20600;-85
2022/10/08 10:33:20;;;;;;;0.00;0.00;;;16.40;99.90;;;;;;5077937;28;20504;-85
2022/10/08 10:35:52;;;;;;;0.00;0.00;;;16.50;99.90;;;;;;5069194;28;20425;-87
2022/10/08 10:38:26;;;;;;;0.00;0.00;;;16.50;99.90;;;;;;5062509;28;20443;-84
2022/10/08 10:41:05;;;;;;;0.00;0.00;;;16.50;99.90;;;;;;5060112;28;20498;-85
2022/10/08 10:43:42;;;;;;;0.00;0.00;;;16.50;99.90;;;;;;5055164;28;20628;-85
2022/10/08 10:46:23;;;;;;;0.00;0.00;;;16.50;99.90;;;;;;5045577;28;20496;-84
2022/10/08 10:48:52;;;;;;;0.00;0.00;;;16.40;99.90;;;;;;5056260;28;20456;-86
2022/10/08 10:51:47;;;;;;;0.00;0.00;;;16.40;99.90;;;;;;5056261;28;20519;-86
2022/10/08 10:54:42;;;;;;;0.00;0.00;;;16.30;99.90;;;;;;5059433;28;20459;-84
2022/10/08 10:57:20;;;;;;;0.00;0.00;;;16.20;99.90;;;;;;5058337;28;20479;-86
2022/10/08 10:59:54;;;;;;;0.00;0.00;;;16.20;99.90;;;;;;5062994;28;20436;-89
2022/10/08 11:02:30;;;;;;;0.00;0.00;;;16.20;99.90;;;;;;5061405;28;20472;-87
2022/10/08 11:05:10;;;;;;;0.00;0.00;;;16.40;99.90;;;;;;5061969;28;20468;-88
2022/10/08 11:08:04;;;;;;;0.00;0.00;;;16.60;99.90;;;;;;5052683;28;20962;-88
2022/10/08 11:10:44;;;;;;;0.00;0.00;;;16.80;99.90;;;;;;5047452;28;20464;-89
2022/10/08 11:13:46;;;;;;;0.00;0.00;;;17.10;99.90;;;;;;5054313;28;20607;-87
2022/10/08 11:16:33;;;;;;;0.00;0.00;;;17.20;99.90;;;;;;5054872;28;20535;-89
2022/10/08 11:19:06;;;;;;;0.00;0.00;;;17.30;99.90;;;;;;5049031;28;20781;-89
2022/10/08 11:21:48;;;;;;;0.00;0.00;;;17.50;99.90;;;;;;5063622;28;20528;-89
2022/10/08 11:24:41;;;;;;;0.00;0.00;;;17.50;99.90;;;;;;5044028;28;20521;-91
2022/10/08 11:27:35;;;;;;;0.00;0.00;;;17.10;99.90;;;;;;5046268;28;20463;-91
2022/10/08 11:30:16;;;;;;;0.00;0.00;;;15.70;99.90;;;;;;5061884;28;20921;-90
2022/10/08 11:32:54;;;;;;;0.00;0.00;;;14.60;99.90;;;;;;5067084;28;20544;-91
2022/10/08 11:35:48;;;;;;;0.00;0.00;;;14.00;99.90;;;;;;5049209;28;20444;-88
2022/10/08 11:38:24;;;;;;;0.00;0.00;;;13.40;99.90;;;;;;5051671;28;20448;-90
2022/10/08 11:41:11;;;;;;;0.00;0.00;;;12.90;99.90;;;;;;5041750;28;21066;-90
2022/10/08 11:43:54;;;;;;;0.00;0.00;;;12.60;99.90;;;;;;5039886;28;20505;-87
2022/10/08 11:46:32;;;;;;;0.00;0.00;;;12.30;99.90;;;;;;5044702;28;20432;-87
2022/10/08 11:49:04;;;;;;;0.00;0.00;;;12.20;99.90;;;;;;5059645;28;20474;-89
2022/10/08 11:51:37;;;;;;;0.00;0.00;;;12.20;99.90;;;;;;5058824;28;20461;-89
2022/10/08 11:54:23;;;;;;;0.00;0.00;;;12.20;99.90;;;;;;5044358;28;20426;-89
2022/10/08 11:57:10;;;;;;;0.00;0.00;;;12.40;99.90;;;;;;5039203;28;20421;-89
2022/10/08 11:59:48;;;;;;;0.00;0.00;;;12.60;99.90;;;;;;5040579;28;20469;-90
2022/10/08 12:02:26;;;;;;;0.00;0.00;;;12.60;99.90;;;;;;5041334;28;20484;-89
2022/10/08 12:04:58;;;;;;;0.00;0.00;;;12.80;99.90;;;;;;5049155;28;20460;-87
2022/10/08 12:07:31;;;;;;;0.00;0.00;;;12.90;99.90;;;;;;5072410;28;20437;-87
2022/10/08 12:10:29;;;;;;;0.00;0.00;;;12.90;99.90;;;;;;5071326;28;20468;-88
2022/10/08 12:13:21;;;;;;;0.00;0.00;;;13.00;99.90;;;;;;5067860;28;20459;-86
2022/10/08 12:15:52;;;;;;;0.00;0.00;;;13.00;99.90;;;;;;5042020;28;20445;-88
2022/10/08 12:18:32;;;;;;;0.00;0.00;;;13.00;99.90;;;;;;5039684;28;20452;-86
2022/10/08 12:21:35;;;;;;;0.00;0.00;;;12.90;99.90;;;;;;5038123;28;20572;-89
2022/10/08 12:24:34;;;;;;;0.00;0.00;;;12.80;99.90;;;;;;5047424;28;20456;-87
2022/10/08 12:27:24;;;;;;;0.00;0.00;;;12.80;99.90;;;;;;5034540;28;20436;-89
2022/10/08 12:29:57;;;;;;;0.00;0.00;;;12.90;99.90;;;;;;5061569;28;20488;-90
2022/10/08 12:32:27;;;;;;;0.00;0.00;;;13.00;99.90;;;;;;5066684;28;20479;-91
2022/10/08 12:35:00;;;;;;;0.00;0.00;;;12.90;99.90;;;;;;5062460;28;20471;-89
2022/10/08 12:38:01;;;;;;;0.00;0.00;;;13.00;99.90;;;;;;5060002;28;20459;-88
2022/10/08 12:40:40;;;;;;;0.00;0.00;;;13.00;99.90;;;;;;5045046;28;20481;-88
2022/10/08 12:43:22;;;;;;;0.00;0.00;;;13.00;99.90;;;;;;5057491;28;20556;-89
2022/10/08 12:45:57;;;;;;;0.00;0.00;;;13.10;99.90;;;;;;5038805;28;20453;-88
2022/10/08 12:48:35;;;;;;;0.00;0.00;;;13.20;99.90;;;;;;5050867;28;20463;-87
2022/10/08 12:51:21;;;;;;;0.00;0.00;;;13.20;99.90;;;;;;5037095;28;20552;-87
2022/10/08 12:53:52;;;;;;;0.00;0.00;;;13.30;99.90;;;;;;5036487;28;20437;-89
2022/10/08 12:56:27;;;;;;;0.00;0.00;;;13.40;99.90;;;;;;5046989;28;20446;-88
2022/10/08 12:58:59;;;;;;;0.00;0.00;;;13.50;99.90;;;;;;5058850;28;20917;-89
2022/10/08 13:01:28;;;;;;;0.00;0.00;;;13.50;99.90;;;;;;5058902;28;20420;-89
2022/10/08 13:04:18;;;;;;;0.00;0.00;;;13.50;99.90;;;;;;5057320;28;20440;-88
2022/10/08 13:07:31;;;;;;;0.00;0.00;;;13.60;99.90;;;;;;5052383;28;20475;-89
2022/10/08 13:10:03;;;;;;;0.00;0.00;;;13.70;99.90;;;;;;5058675;28;20472;-89
2022/10/08 13:12:33;;;;;;;0.00;0.00;;;13.80;99.90;;;;;;5051371;28;20563;-86
2022/10/08 13:15:04;;;;;;;0.00;0.00;;;13.80;99.90;;;;;;5048562;28;20449;-88
2022/10/08 13:17:34;;;;;;;0.00;0.00;;;13.80;99.90;;;;;;5039824;28;20466;-87
2022/10/08 13:20:14;;;;;;;0.00;0.00;;;13.80;99.90;;;;;;5058033;28;21001;-87
2022/10/08 13:22:42;;;;;;;0.00;0.00;;;13.90;99.90;;;;;;5039584;28;20572;-87
2022/10/08 13:25:33;;;;;;;0.00;0.00;;;14.00;99.90;;;;;;5039905;28;20444;-87